sensor_id;sensor_type;location;lat;lon;timestamp;P1;durP1;ratioP1;P2;durP2;ratioP2
39068;SDS011;24822;53.574;9.612;2023-04-25T00:00:22;20.38;;;6.28;;
39068;SDS011;24822;53.574;9.612;2023-04-25T00:03:24;15.95;;;6.05;;
39068;SDS011;24822;53.574;9.612;2023-04-25T00:06:26;14.50;;;5.22;;
39068;SDS011;24822;53.574;9.612;2023-04-25T00:09:27;14.73;;;4.18;;
39068;SDS011;24822;53.574;9.612;2023-04-25T00:12:29;14.15;;;4.88;;
39068;SDS011;24822;53.574;9.612;2023-04-25T00:15:30;16.25;;;4.85;;
39068;SDS011;24822;53.574;9.612;2023-04-25T00:18:32;13.10;;;4.88;;
39068;SDS011;24822;53.574;9.612;2023-04-25T00:21:33;19.58;;;5.03;;
39068;SDS011;24822;53.574;9.612;2023-04-25T00:24:35;14.40;;;4.38;;
39068;SDS011;24822;53.574;9.612;2023-04-25T00:27:36;20.63;;;4.70;;
39068;SDS011;24822;53.574;9.612;2023-04-25T00:30:38;19.77;;;4.72;;
39068;SDS011;24822;53.574;9.612;2023-04-25T00:33:40;23.88;;;5.45;;
39068;SDS011;24822;53.574;9.612;2023-04-25T00:36:42;11.65;;;4.45;;
39068;SDS011;24822;53.574;9.612;2023-04-25T00:39:43;17.63;;;4.40;;
39068;SDS011;24822;53.574;9.612;2023-04-25T00:42:45;17.23;;;3.97;;
39068;SDS011;24822;53.574;9.612;2023-04-25T00:45:48;15.95;;;5.40;;
39068;SDS011;24822;53.574;9.612;2023-04-25T00:48:51;16.27;;;4.40;;
39068;SDS011;24822;53.574;9.612;2023-04-25T00:51:53;16.30;;;4.75;;
39068;SDS011;24822;53.574;9.612;2023-04-25T00:54:55;21.88;;;7.20;;
39068;SDS011;24822;53.574;9.612;2023-04-25T00:57:57;13.73;;;4.75;;
39068;SDS011;24822;53.574;9.612;2023-04-25T01:00:58;21.55;;;4.65;;
39068;SDS011;24822;53.574;9.612;2023-04-25T01:04:00;21.00;;;5.32;;
39068;SDS011;24822;53.574;9.612;2023-04-25T01:07:02;15.18;;;4.70;;
39068;SDS011;24822;53.574;9.612;2023-04-25T01:10:04;17.70;;;5.05;;
39068;SDS011;24822;53.574;9.612;2023-04-25T01:13:06;26.43;;;4.80;;
39068;SDS011;24822;53.574;9.612;2023-04-25T01:16:08;20.40;;;6.28;;
39068;SDS011;24822;53.574;9.612;2023-04-25T01:19:10;24.38;;;4.97;;
39068;SDS011;24822;53.574;9.612;2023-04-25T01:22:12;23.40;;;5.78;;
39068;SDS011;24822;53.574;9.612;2023-04-25T01:25:14;25.67;;;5.32;;
39068;SDS011;24822;53.574;9.612;2023-04-25T01:28:16;17.23;;;4.85;;
39068;SDS011;24822;53.574;9.612;2023-04-25T01:31:18;19.75;;;5.60;;
39068;SDS011;24822;53.574;9.612;2023-04-25T01:34:20;22.60;;;4.60;;
39068;SDS011;24822;53.574;9.612;2023-04-25T01:37:22;14.38;;;5.35;;
39068;SDS011;24822;53.574;9.612;2023-04-25T01:40:23;16.70;;;4.65;;
39068;SDS011;24822;53.574;9.612;2023-04-25T01:43:25;20.02;;;4.82;;
39068;SDS011;24822;53.574;9.612;2023-04-25T01:46:27;17.48;;;4.63;;
39068;SDS011;24822;53.574;9.612;2023-04-25T01:49:29;18.52;;;4.20;;
39068;SDS011;24822;53.574;9.612;2023-04-25T01:52:31;16.90;;;4.10;;
39068;SDS011;24822;53.574;9.612;2023-04-25T01:55:33;21.10;;;4.35;;
39068;SDS011;24822;53.574;9.612;2023-04-25T01:58:39;13.38;;;4.35;;
39068;SDS011;24822;53.574;9.612;2023-04-25T02:01:44;19.77;;;4.25;;
39068;SDS011;24822;53.574;9.612;2023-04-25T02:04:54;14.88;;;4.20;;
39068;SDS011;24822;53.574;9.612;2023-04-25T02:07:57;14.55;;;4.05;;
39068;SDS011;24822;53.574;9.612;2023-04-25T02:11:02;18.80;;;4.47;;
39068;SDS011;24822;53.574;9.612;2023-04-25T02:14:11;15.63;;;4.40;;
39068;SDS011;24822;53.574;9.612;2023-04-25T02:17:21;18.52;;;3.58;;
39068;SDS011;24822;53.574;9.612;2023-04-25T02:20:24;15.97;;;5.03;;
39068;SDS011;24822;53.574;9.612;2023-04-25T02:23:26;14.50;;;4.70;;
39068;SDS011;24822;53.574;9.612;2023-04-25T02:26:28;16.60;;;4.78;;
39068;SDS011;24822;53.574;9.612;2023-04-25T02:29:30;15.65;;;4.15;;
39068;SDS011;24822;53.574;9.612;2023-04-25T02:32:32;11.40;;;4.00;;
39068;SDS011;24822;53.574;9.612;2023-04-25T02:35:33;18.05;;;4.45;;
39068;SDS011;24822;53.574;9.612;2023-04-25T02:38:35;15.88;;;4.95;;
39068;SDS011;24822;53.574;9.612;2023-04-25T02:41:38;16.88;;;4.45;;
39068;SDS011;24822;53.574;9.612;2023-04-25T02:44:40;12.80;;;3.97;;
39068;SDS011;24822;53.574;9.612;2023-04-25T02:47:41;14.75;;;4.32;;
39068;SDS011;24822;53.574;9.612;2023-04-25T02:50:43;20.67;;;4.43;;
39068;SDS011;24822;53.574;9.612;2023-04-25T02:53:44;19.85;;;4.10;;
39068;SDS011;24822;53.574;9.612;2023-04-25T02:56:46;18.77;;;4.55;;
39068;SDS011;24822;53.574;9.612;2023-04-25T02:59:53;17.73;;;4.43;;
39068;SDS011;24822;53.574;9.612;2023-04-25T03:02:55;14.50;;;4.13;;
39068;SDS011;24822;53.574;9.612;2023-04-25T03:05:56;24.13;;;4.32;;
39068;SDS011;24822;53.574;9.612;2023-04-25T03:09:02;12.48;;;3.97;;
39068;SDS011;24822;53.574;9.612;2023-04-25T03:12:04;14.20;;;4.13;;
39068;SDS011;24822;53.574;9.612;2023-04-25T03:15:07;16.33;;;3.63;;
39068;SDS011;24822;53.574;9.612;2023-04-25T03:18:10;8.45;;;2.90;;
39068;SDS011;24822;53.574;9.612;2023-04-25T03:24:14;15.13;;;3.35;;
39068;SDS011;24822;53.574;9.612;2023-04-25T03:27:17;12.02;;;3.33;;
39068;SDS011;24822;53.574;9.612;2023-04-25T03:30:18;18.23;;;3.78;;
39068;SDS011;24822;53.574;9.612;2023-04-25T03:33:20;13.40;;;3.30;;
39068;SDS011;24822;53.574;9.612;2023-04-25T03:36:21;16.63;;;3.28;;
39068;SDS011;24822;53.574;9.612;2023-04-25T03:39:23;20.95;;;5.15;;
39068;SDS011;24822;53.574;9.612;2023-04-25T03:42:26;15.55;;;3.20;;
39068;SDS011;24822;53.574;9.612;2023-04-25T03:45:27;15.23;;;4.80;;
39068;SDS011;24822;53.574;9.612;2023-04-25T03:48:29;13.45;;;4.43;;
39068;SDS011;24822;53.574;9.612;2023-04-25T03:51:30;10.02;;;2.90;;
39068;SDS011;24822;53.574;9.612;2023-04-25T03:54:32;13.80;;;3.53;;
39068;SDS011;24822;53.574;9.612;2023-04-25T03:57:39;12.55;;;3.20;;
39068;SDS011;24822;53.574;9.612;2023-04-25T04:00:41;16.70;;;3.72;;
39068;SDS011;24822;53.574;9.612;2023-04-25T04:03:42;19.73;;;4.25;;
39068;SDS011;24822;53.574;9.612;2023-04-25T04:06:44;14.38;;;3.72;;
39068;SDS011;24822;53.574;9.612;2023-04-25T04:09:53;16.65;;;3.88;;
39068;SDS011;24822;53.574;9.612;2023-04-25T04:13:01;14.23;;;3.88;;
39068;SDS011;24822;53.574;9.612;2023-04-25T04:16:02;12.38;;;3.03;;
39068;SDS011;24822;53.574;9.612;2023-04-25T04:19:05;16.37;;;5.60;;
39068;SDS011;24822;53.574;9.612;2023-04-25T04:22:07;15.83;;;5.03;;
39068;SDS011;24822;53.574;9.612;2023-04-25T04:25:09;15.65;;;5.28;;
39068;SDS011;24822;53.574;9.612;2023-04-25T04:28:33;12.65;;;3.15;;
39068;SDS011;24822;53.574;9.612;2023-04-25T04:31:56;14.85;;;4.72;;
39068;SDS011;24822;53.574;9.612;2023-04-25T04:34:58;12.13;;;3.85;;
39068;SDS011;24822;53.574;9.612;2023-04-25T04:38:00;9.25;;;4.07;;
39068;SDS011;24822;53.574;9.612;2023-04-25T04:41:06;9.65;;;3.90;;
39068;SDS011;24822;53.574;9.612;2023-04-25T04:44:23;13.27;;;3.65;;
39068;SDS011;24822;53.574;9.612;2023-04-25T04:47:58;13.40;;;4.07;;
39068;SDS011;24822;53.574;9.612;2023-04-25T04:51:08;13.18;;;3.45;;
39068;SDS011;24822;53.574;9.612;2023-04-25T04:54:36;14.35;;;4.03;;
39068;SDS011;24822;53.574;9.612;2023-04-25T04:58:00;16.52;;;4.38;;
39068;SDS011;24822;53.574;9.612;2023-04-25T05:01:12;17.55;;;3.65;;
39068;SDS011;24822;53.574;9.612;2023-04-25T05:04:33;12.80;;;3.13;;
39068;SDS011;24822;53.574;9.612;2023-04-25T05:07:42;10.15;;;3.13;;
39068;SDS011;24822;53.574;9.612;2023-04-25T05:11:04;10.35;;;3.20;;
39068;SDS011;24822;53.574;9.612;2023-04-25T05:14:31;12.27;;;3.10;;
39068;SDS011;24822;53.574;9.612;2023-04-25T05:21:18;11.33;;;3.13;;
39068;SDS011;24822;53.574;9.612;2023-04-25T05:24:39;14.25;;;3.42;;
39068;SDS011;24822;53.574;9.612;2023-04-25T05:27:59;9.30;;;3.28;;
39068;SDS011;24822;53.574;9.612;2023-04-25T05:31:18;13.10;;;3.00;;
39068;SDS011;24822;53.574;9.612;2023-04-25T05:34:27;10.38;;;2.95;;
39068;SDS011;24822;53.574;9.612;2023-04-25T05:37:32;13.18;;;3.42;;
39068;SDS011;24822;53.574;9.612;2023-04-25T05:44:19;14.95;;;3.05;;
39068;SDS011;24822;53.574;9.612;2023-04-25T05:47:44;15.80;;;3.45;;
39068;SDS011;24822;53.574;9.612;2023-04-25T05:50:52;9.32;;;3.15;;
39068;SDS011;24822;53.574;9.612;2023-04-25T05:54:11;10.00;;;3.17;;
39068;SDS011;24822;53.574;9.612;2023-04-25T05:57:24;10.05;;;2.80;;
39068;SDS011;24822;53.574;9.612;2023-04-25T06:00:27;15.35;;;4.55;;
39068;SDS011;24822;53.574;9.612;2023-04-25T06:03:29;8.27;;;2.72;;
39068;SDS011;24822;53.574;9.612;2023-04-25T06:06:32;10.88;;;4.20;;
39068;SDS011;24822;53.574;9.612;2023-04-25T06:09:34;10.05;;;2.63;;
39068;SDS011;24822;53.574;9.612;2023-04-25T06:12:35;8.35;;;3.03;;
39068;SDS011;24822;53.574;9.612;2023-04-25T06:15:38;11.77;;;2.57;;
39068;SDS011;24822;53.574;9.612;2023-04-25T06:18:39;13.25;;;2.20;;
39068;SDS011;24822;53.574;9.612;2023-04-25T06:21:42;11.23;;;2.63;;
39068;SDS011;24822;53.574;9.612;2023-04-25T06:27:46;7.63;;;2.30;;
39068;SDS011;24822;53.574;9.612;2023-04-25T06:30:47;11.85;;;2.70;;
39068;SDS011;24822;53.574;9.612;2023-04-25T06:33:52;10.55;;;2.78;;
39068;SDS011;24822;53.574;9.612;2023-04-25T06:36:53;11.30;;;3.05;;
39068;SDS011;24822;53.574;9.612;2023-04-25T06:39:55;9.90;;;2.40;;
39068;SDS011;24822;53.574;9.612;2023-04-25T06:42:57;9.13;;;2.28;;
39068;SDS011;24822;53.574;9.612;2023-04-25T06:46:13;5.40;;;1.92;;
39068;SDS011;24822;53.574;9.612;2023-04-25T06:49:18;13.35;;;2.45;;
39068;SDS011;24822;53.574;9.612;2023-04-25T06:52:20;11.30;;;2.15;;
39068;SDS011;24822;53.574;9.612;2023-04-25T06:55:23;9.93;;;2.28;;
39068;SDS011;24822;53.574;9.612;2023-04-25T06:58:37;7.53;;;2.90;;
39068;SDS011;24822;53.574;9.612;2023-04-25T07:01:45;13.88;;;3.08;;
39068;SDS011;24822;53.574;9.612;2023-04-25T07:04:58;7.07;;;2.00;;
39068;SDS011;24822;53.574;9.612;2023-04-25T07:08:01;7.53;;;1.50;;
39068;SDS011;24822;53.574;9.612;2023-04-25T07:11:02;11.13;;;2.72;;
39068;SDS011;24822;53.574;9.612;2023-04-25T07:14:04;8.13;;;2.00;;
39068;SDS011;24822;53.574;9.612;2023-04-25T07:17:05;10.82;;;2.22;;
39068;SDS011;24822;53.574;9.612;2023-04-25T07:20:07;5.47;;;1.42;;
39068;SDS011;24822;53.574;9.612;2023-04-25T07:23:09;7.30;;;2.00;;
39068;SDS011;24822;53.574;9.612;2023-04-25T07:26:11;4.25;;;1.33;;
39068;SDS011;24822;53.574;9.612;2023-04-25T07:29:28;5.85;;;1.60;;
39068;SDS011;24822;53.574;9.612;2023-04-25T07:32:32;5.07;;;1.60;;
39068;SDS011;24822;53.574;9.612;2023-04-25T07:35:34;4.60;;;1.38;;
39068;SDS011;24822;53.574;9.612;2023-04-25T07:38:36;6.60;;;1.40;;
39068;SDS011;24822;53.574;9.612;2023-04-25T07:41:37;5.18;;;1.65;;
39068;SDS011;24822;53.574;9.612;2023-04-25T07:44:40;9.75;;;1.38;;
39068;SDS011;24822;53.574;9.612;2023-04-25T07:47:44;8.57;;;1.83;;
39068;SDS011;24822;53.574;9.612;2023-04-25T07:50:46;5.22;;;1.48;;
39068;SDS011;24822;53.574;9.612;2023-04-25T07:53:48;9.43;;;2.10;;
39068;SDS011;24822;53.574;9.612;2023-04-25T07:56:51;7.80;;;1.70;;
39068;SDS011;24822;53.574;9.612;2023-04-25T08:00:00;9.65;;;2.65;;
39068;SDS011;24822;53.574;9.612;2023-04-25T08:03:02;10.37;;;1.97;;
39068;SDS011;24822;53.574;9.612;2023-04-25T08:06:04;4.75;;;1.50;;
39068;SDS011;24822;53.574;9.612;2023-04-25T08:09:15;2.97;;;1.30;;
39068;SDS011;24822;53.574;9.612;2023-04-25T08:12:17;8.63;;;1.90;;
39068;SDS011;24822;53.574;9.612;2023-04-25T08:15:19;4.53;;;1.80;;
39068;SDS011;24822;53.574;9.612;2023-04-25T08:18:21;3.25;;;1.33;;
39068;SDS011;24822;53.574;9.612;2023-04-25T08:21:24;6.55;;;1.50;;
39068;SDS011;24822;53.574;9.612;2023-04-25T08:24:27;9.25;;;1.90;;
39068;SDS011;24822;53.574;9.612;2023-04-25T08:27:29;6.82;;;1.77;;
39068;SDS011;24822;53.574;9.612;2023-04-25T08:30:31;6.85;;;2.33;;
39068;SDS011;24822;53.574;9.612;2023-04-25T08:33:32;5.28;;;1.95;;
39068;SDS011;24822;53.574;9.612;2023-04-25T08:36:55;7.68;;;1.45;;
39068;SDS011;24822;53.574;9.612;2023-04-25T08:40:22;3.70;;;1.33;;
39068;SDS011;24822;53.574;9.612;2023-04-25T08:43:34;4.53;;;1.20;;
39068;SDS011;24822;53.574;9.612;2023-04-25T08:46:37;4.70;;;0.80;;
39068;SDS011;24822;53.574;9.612;2023-04-25T08:49:57;5.97;;;1.48;;
39068;SDS011;24822;53.574;9.612;2023-04-25T08:53:00;6.78;;;1.65;;
39068;SDS011;24822;53.574;9.612;2023-04-25T08:56:09;3.88;;;1.17;;
39068;SDS011;24822;53.574;9.612;2023-04-25T08:59:13;3.40;;;1.00;;
39068;SDS011;24822;53.574;9.612;2023-04-25T09:02:17;5.32;;;1.85;;
39068;SDS011;24822;53.574;9.612;2023-04-25T09:05:22;7.30;;;1.30;;
39068;SDS011;24822;53.574;9.612;2023-04-25T09:08:26;4.85;;;1.67;;
39068;SDS011;24822;53.574;9.612;2023-04-25T09:11:28;11.38;;;4.85;;
39068;SDS011;24822;53.574;9.612;2023-04-25T09:14:31;4.63;;;1.60;;
39068;SDS011;24822;53.574;9.612;2023-04-25T09:17:54;8.05;;;2.08;;
39068;SDS011;24822;53.574;9.612;2023-04-25T09:21:04;6.72;;;1.80;;
39068;SDS011;24822;53.574;9.612;2023-04-25T09:24:14;6.32;;;1.45;;
39068;SDS011;24822;53.574;9.612;2023-04-25T09:27:19;4.50;;;1.55;;
39068;SDS011;24822;53.574;9.612;2023-04-25T09:30:31;5.90;;;1.70;;
39068;SDS011;24822;53.574;9.612;2023-04-25T09:33:40;6.07;;;1.33;;
39068;SDS011;24822;53.574;9.612;2023-04-25T09:36:42;5.53;;;1.30;;
39068;SDS011;24822;53.574;9.612;2023-04-25T09:40:06;4.78;;;1.60;;
39068;SDS011;24822;53.574;9.612;2023-04-25T09:43:20;6.75;;;1.60;;
39068;SDS011;24822;53.574;9.612;2023-04-25T09:46:24;7.53;;;2.08;;
39068;SDS011;24822;53.574;9.612;2023-04-25T09:49:29;6.05;;;1.70;;
39068;SDS011;24822;53.574;9.612;2023-04-25T09:52:36;7.85;;;2.55;;
39068;SDS011;24822;53.574;9.612;2023-04-25T09:55:49;8.65;;;1.65;;
39068;SDS011;24822;53.574;9.612;2023-04-25T09:58:52;3.50;;;1.58;;
39068;SDS011;24822;53.574;9.612;2023-04-25T10:01:55;4.07;;;1.27;;
39068;SDS011;24822;53.574;9.612;2023-04-25T10:05:06;6.82;;;2.42;;
39068;SDS011;24822;53.574;9.612;2023-04-25T10:08:13;5.38;;;1.92;;
39068;SDS011;24822;53.574;9.612;2023-04-25T10:11:14;5.63;;;1.58;;
39068;SDS011;24822;53.574;9.612;2023-04-25T10:14:17;2.25;;;0.80;;
39068;SDS011;24822;53.574;9.612;2023-04-25T10:17:20;4.30;;;0.80;;
39068;SDS011;24822;53.574;9.612;2023-04-25T10:20:22;2.10;;;0.65;;
39068;SDS011;24822;53.574;9.612;2023-04-25T10:23:23;3.45;;;1.10;;
39068;SDS011;24822;53.574;9.612;2023-04-25T10:26:25;6.03;;;1.30;;
39068;SDS011;24822;53.574;9.612;2023-04-25T10:29:29;5.65;;;1.13;;
39068;SDS011;24822;53.574;9.612;2023-04-25T10:32:31;2.70;;;1.10;;
39068;SDS011;24822;53.574;9.612;2023-04-25T10:35:33;8.48;;;1.80;;
39068;SDS011;24822;53.574;9.612;2023-04-25T10:38:35;5.32;;;1.38;;
39068;SDS011;24822;53.574;9.612;2023-04-25T10:41:47;6.13;;;1.20;;
39068;SDS011;24822;53.574;9.612;2023-04-25T10:45:04;9.98;;;1.42;;
39068;SDS011;24822;53.574;9.612;2023-04-25T10:48:24;5.80;;;1.40;;
39068;SDS011;24822;53.574;9.612;2023-04-25T10:51:33;5.63;;;1.10;;
39068;SDS011;24822;53.574;9.612;2023-04-25T10:54:55;6.20;;;1.17;;
39068;SDS011;24822;53.574;9.612;2023-04-25T10:57:58;5.18;;;1.13;;
39068;SDS011;24822;53.574;9.612;2023-04-25T11:01:01;5.80;;;1.67;;
39068;SDS011;24822;53.574;9.612;2023-04-25T11:04:02;5.00;;;1.35;;
39068;SDS011;24822;53.574;9.612;2023-04-25T11:07:10;7.22;;;1.30;;
39068;SDS011;24822;53.574;9.612;2023-04-25T11:10:20;4.93;;;1.27;;
39068;SDS011;24822;53.574;9.612;2023-04-25T11:13:29;5.95;;;1.20;;
39068;SDS011;24822;53.574;9.612;2023-04-25T11:16:30;2.55;;;0.60;;
39068;SDS011;24822;53.574;9.612;2023-04-25T11:19:32;0.93;;;0.30;;
39068;SDS011;24822;53.574;9.612;2023-04-25T11:22:34;1.40;;;0.57;;
39068;SDS011;24822;53.574;9.612;2023-04-25T11:25:35;2.53;;;0.77;;
39068;SDS011;24822;53.574;9.612;2023-04-25T11:28:39;5.65;;;1.70;;
39068;SDS011;24822;53.574;9.612;2023-04-25T11:31:43;5.90;;;1.85;;
39068;SDS011;24822;53.574;9.612;2023-04-25T11:34:46;5.88;;;1.40;;
39068;SDS011;24822;53.574;9.612;2023-04-25T11:37:48;8.30;;;2.22;;
39068;SDS011;24822;53.574;9.612;2023-04-25T11:40:51;7.10;;;1.20;;
39068;SDS011;24822;53.574;9.612;2023-04-25T11:43:53;3.85;;;1.30;;
39068;SDS011;24822;53.574;9.612;2023-04-25T11:46:54;6.88;;;2.05;;
39068;SDS011;24822;53.574;9.612;2023-04-25T11:49:59;6.50;;;2.15;;
39068;SDS011;24822;53.574;9.612;2023-04-25T11:53:01;5.10;;;1.05;;
39068;SDS011;24822;53.574;9.612;2023-04-25T11:56:08;4.68;;;1.15;;
39068;SDS011;24822;53.574;9.612;2023-04-25T11:59:11;4.88;;;1.10;;
39068;SDS011;24822;53.574;9.612;2023-04-25T12:02:26;3.70;;;1.15;;
39068;SDS011;24822;53.574;9.612;2023-04-25T12:05:28;3.83;;;0.73;;
39068;SDS011;24822;53.574;9.612;2023-04-25T12:08:34;7.13;;;1.40;;
39068;SDS011;24822;53.574;9.612;2023-04-25T12:11:42;4.53;;;1.60;;
39068;SDS011;24822;53.574;9.612;2023-04-25T12:14:46;3.55;;;0.90;;
39068;SDS011;24822;53.574;9.612;2023-04-25T12:17:49;3.38;;;0.98;;
39068;SDS011;24822;53.574;9.612;2023-04-25T12:20:52;4.00;;;1.38;;
39068;SDS011;24822;53.574;9.612;2023-04-25T12:23:54;7.90;;;1.38;;
39068;SDS011;24822;53.574;9.612;2023-04-25T12:26:59;4.72;;;1.10;;
39068;SDS011;24822;53.574;9.612;2023-04-25T12:30:04;3.67;;;1.23;;
39068;SDS011;24822;53.574;9.612;2023-04-25T12:33:07;7.05;;;1.10;;
39068;SDS011;24822;53.574;9.612;2023-04-25T12:36:08;5.25;;;1.27;;
39068;SDS011;24822;53.574;9.612;2023-04-25T12:39:16;7.90;;;2.50;;
39068;SDS011;24822;53.574;9.612;2023-04-25T12:42:18;9.48;;;1.70;;
39068;SDS011;24822;53.574;9.612;2023-04-25T12:45:20;5.13;;;1.48;;
39068;SDS011;24822;53.574;9.612;2023-04-25T12:48:21;3.75;;;1.00;;
39068;SDS011;24822;53.574;9.612;2023-04-25T12:51:23;5.60;;;1.45;;
39068;SDS011;24822;53.574;9.612;2023-04-25T12:54:25;4.65;;;1.30;;
39068;SDS011;24822;53.574;9.612;2023-04-25T12:57:26;3.83;;;1.00;;
39068;SDS011;24822;53.574;9.612;2023-04-25T13:00:28;4.03;;;1.30;;
39068;SDS011;24822;53.574;9.612;2023-04-25T13:03:30;7.22;;;1.23;;
39068;SDS011;24822;53.574;9.612;2023-04-25T13:06:32;3.35;;;0.93;;
39068;SDS011;24822;53.574;9.612;2023-04-25T13:09:33;3.88;;;1.00;;
39068;SDS011;24822;53.574;9.612;2023-04-25T13:12:34;2.35;;;1.00;;
39068;SDS011;24822;53.574;9.612;2023-04-25T13:15:36;8.23;;;1.63;;
39068;SDS011;24822;53.574;9.612;2023-04-25T13:18:37;4.45;;;1.35;;
39068;SDS011;24822;53.574;9.612;2023-04-25T13:21:39;4.90;;;1.40;;
39068;SDS011;24822;53.574;9.612;2023-04-25T13:24:40;5.57;;;1.60;;
39068;SDS011;24822;53.574;9.612;2023-04-25T13:27:42;5.55;;;1.33;;
39068;SDS011;24822;53.574;9.612;2023-04-25T13:30:43;5.80;;;1.20;;
39068;SDS011;24822;53.574;9.612;2023-04-25T13:33:45;5.18;;;1.10;;
39068;SDS011;24822;53.574;9.612;2023-04-25T13:36:46;2.78;;;0.90;;
39068;SDS011;24822;53.574;9.612;2023-04-25T13:39:47;3.15;;;1.10;;
39068;SDS011;24822;53.574;9.612;2023-04-25T13:42:49;4.53;;;1.30;;
39068;SDS011;24822;53.574;9.612;2023-04-25T13:45:50;4.78;;;1.38;;
39068;SDS011;24822;53.574;9.612;2023-04-25T13:48:52;8.32;;;1.38;;
39068;SDS011;24822;53.574;9.612;2023-04-25T13:52:00;9.90;;;1.58;;
39068;SDS011;24822;53.574;9.612;2023-04-25T13:55:01;11.25;;;2.05;;
39068;SDS011;24822;53.574;9.612;2023-04-25T13:58:03;2.80;;;1.35;;
39068;SDS011;24822;53.574;9.612;2023-04-25T14:01:04;8.32;;;2.28;;
39068;SDS011;24822;53.574;9.612;2023-04-25T14:04:06;10.30;;;2.17;;
39068;SDS011;24822;53.574;9.612;2023-04-25T14:07:07;5.78;;;1.75;;
39068;SDS011;24822;53.574;9.612;2023-04-25T14:10:09;4.85;;;1.52;;
39068;SDS011;24822;53.574;9.612;2023-04-25T14:13:11;5.88;;;1.50;;
39068;SDS011;24822;53.574;9.612;2023-04-25T14:16:12;5.20;;;2.20;;
39068;SDS011;24822;53.574;9.612;2023-04-25T14:19:14;6.45;;;2.20;;
39068;SDS011;24822;53.574;9.612;2023-04-25T14:22:16;5.07;;;1.38;;
39068;SDS011;24822;53.574;9.612;2023-04-25T14:25:17;4.88;;;1.92;;
39068;SDS011;24822;53.574;9.612;2023-04-25T14:28:19;5.72;;;1.85;;
39068;SDS011;24822;53.574;9.612;2023-04-25T14:31:20;6.18;;;1.42;;
39068;SDS011;24822;53.574;9.612;2023-04-25T14:34:22;4.82;;;1.30;;
39068;SDS011;24822;53.574;9.612;2023-04-25T14:37:23;4.28;;;1.38;;
39068;SDS011;24822;53.574;9.612;2023-04-25T14:40:25;7.32;;;2.03;;
39068;SDS011;24822;53.574;9.612;2023-04-25T14:43:26;5.60;;;1.70;;
39068;SDS011;24822;53.574;9.612;2023-04-25T14:46:28;4.20;;;1.27;;
39068;SDS011;24822;53.574;9.612;2023-04-25T14:49:31;6.50;;;1.63;;
39068;SDS011;24822;53.574;9.612;2023-04-25T14:52:33;5.90;;;1.50;;
39068;SDS011;24822;53.574;9.612;2023-04-25T14:55:35;3.03;;;1.00;;
39068;SDS011;24822;53.574;9.612;2023-04-25T14:58:36;3.20;;;1.42;;
39068;SDS011;24822;53.574;9.612;2023-04-25T15:01:38;3.83;;;1.20;;
39068;SDS011;24822;53.574;9.612;2023-04-25T15:04:39;5.88;;;1.95;;
39068;SDS011;24822;53.574;9.612;2023-04-25T15:07:41;6.13;;;1.40;;
39068;SDS011;24822;53.574;9.612;2023-04-25T15:10:42;6.53;;;1.73;;
39068;SDS011;24822;53.574;9.612;2023-04-25T15:13:44;4.43;;;1.38;;
39068;SDS011;24822;53.574;9.612;2023-04-25T15:16:45;7.75;;;2.15;;
39068;SDS011;24822;53.574;9.612;2023-04-25T15:19:46;5.90;;;2.17;;
39068;SDS011;24822;53.574;9.612;2023-04-25T15:22:48;9.48;;;1.63;;
39068;SDS011;24822;53.574;9.612;2023-04-25T15:25:50;6.72;;;1.73;;
39068;SDS011;24822;53.574;9.612;2023-04-25T15:28:51;6.82;;;1.60;;
39068;SDS011;24822;53.574;9.612;2023-04-25T15:31:53;6.55;;;1.45;;
39068;SDS011;24822;53.574;9.612;2023-04-25T15:34:54;8.05;;;2.03;;
39068;SDS011;24822;53.574;9.612;2023-04-25T15:37:56;8.70;;;1.60;;
39068;SDS011;24822;53.574;9.612;2023-04-25T15:40:57;6.55;;;1.52;;
39068;SDS011;24822;53.574;9.612;2023-04-25T15:43:59;6.57;;;1.73;;
39068;SDS011;24822;53.574;9.612;2023-04-25T15:47:01;7.78;;;2.42;;
39068;SDS011;24822;53.574;9.612;2023-04-25T15:50:03;6.20;;;1.58;;
39068;SDS011;24822;53.574;9.612;2023-04-25T15:53:05;6.00;;;1.90;;
39068;SDS011;24822;53.574;9.612;2023-04-25T15:56:07;6.05;;;1.40;;
39068;SDS011;24822;53.574;9.612;2023-04-25T15:59:09;10.73;;;2.60;;
39068;SDS011;24822;53.574;9.612;2023-04-25T16:02:11;4.38;;;1.02;;
39068;SDS011;24822;53.574;9.612;2023-04-25T16:05:13;2.97;;;1.17;;
39068;SDS011;24822;53.574;9.612;2023-04-25T16:08:16;3.92;;;0.70;;
39068;SDS011;24822;53.574;9.612;2023-04-25T16:11:17;1.17;;;0.60;;
39068;SDS011;24822;53.574;9.612;2023-04-25T16:14:19;1.20;;;0.40;;
39068;SDS011;24822;53.574;9.612;2023-04-25T16:17:21;3.25;;;0.90;;
39068;SDS011;24822;53.574;9.612;2023-04-25T16:20:22;3.80;;;0.95;;
39068;SDS011;24822;53.574;9.612;2023-04-25T16:23:24;4.25;;;1.70;;
39068;SDS011;24822;53.574;9.612;2023-04-25T16:26:25;3.70;;;1.05;;
39068;SDS011;24822;53.574;9.612;2023-04-25T16:29:27;4.43;;;1.40;;
39068;SDS011;24822;53.574;9.612;2023-04-25T16:32:28;6.03;;;1.27;;
39068;SDS011;24822;53.574;9.612;2023-04-25T16:35:30;7.53;;;1.65;;
39068;SDS011;24822;53.574;9.612;2023-04-25T16:38:31;6.40;;;1.17;;
39068;SDS011;24822;53.574;9.612;2023-04-25T16:41:33;4.30;;;1.05;;
39068;SDS011;24822;53.574;9.612;2023-04-25T16:44:34;5.35;;;1.20;;
39068;SDS011;24822;53.574;9.612;2023-04-25T16:47:36;5.78;;;1.10;;
39068;SDS011;24822;53.574;9.612;2023-04-25T16:50:37;6.90;;;2.53;;
39068;SDS011;24822;53.574;9.612;2023-04-25T16:53:39;4.93;;;1.55;;
39068;SDS011;24822;53.574;9.612;2023-04-25T16:56:40;11.05;;;1.67;;
39068;SDS011;24822;53.574;9.612;2023-04-25T16:59:42;5.35;;;1.15;;
39068;SDS011;24822;53.574;9.612;2023-04-25T17:02:43;8.73;;;1.52;;
39068;SDS011;24822;53.574;9.612;2023-04-25T17:05:45;5.55;;;1.30;;
39068;SDS011;24822;53.574;9.612;2023-04-25T17:08:46;5.68;;;1.35;;
39068;SDS011;24822;53.574;9.612;2023-04-25T17:11:48;6.10;;;1.50;;
39068;SDS011;24822;53.574;9.612;2023-04-25T17:14:49;7.47;;;1.55;;
39068;SDS011;24822;53.574;9.612;2023-04-25T17:17:50;6.53;;;1.50;;
39068;SDS011;24822;53.574;9.612;2023-04-25T17:20:52;5.93;;;1.00;;
39068;SDS011;24822;53.574;9.612;2023-04-25T17:23:54;4.68;;;0.95;;
39068;SDS011;24822;53.574;9.612;2023-04-25T17:26:56;8.80;;;1.42;;
39068;SDS011;24822;53.574;9.612;2023-04-25T17:29:57;5.15;;;1.38;;
39068;SDS011;24822;53.574;9.612;2023-04-25T17:32:59;8.23;;;1.50;;
39068;SDS011;24822;53.574;9.612;2023-04-25T17:36:00;2.60;;;1.30;;
39068;SDS011;24822;53.574;9.612;2023-04-25T17:39:02;4.47;;;0.90;;
39068;SDS011;24822;53.574;9.612;2023-04-25T17:44:34;3.75;;;1.15;;
39068;SDS011;24822;53.574;9.612;2023-04-25T17:49:36;2.22;;;0.60;;
39068;SDS011;24822;53.574;9.612;2023-04-25T17:54:37;4.75;;;0.98;;
39068;SDS011;24822;53.574;9.612;2023-04-25T17:59:39;4.97;;;0.90;;
39068;SDS011;24822;53.574;9.612;2023-04-25T18:04:40;4.95;;;1.23;;
39068;SDS011;24822;53.574;9.612;2023-04-25T18:09:42;7.43;;;1.50;;
39068;SDS011;24822;53.574;9.612;2023-04-25T18:14:43;6.72;;;1.70;;
39068;SDS011;24822;53.574;9.612;2023-04-25T18:19:45;9.07;;;2.80;;
39068;SDS011;24822;53.574;9.612;2023-04-25T18:24:46;6.45;;;1.85;;
39068;SDS011;24822;53.574;9.612;2023-04-25T18:29:48;6.00;;;1.80;;
39068;SDS011;24822;53.574;9.612;2023-04-25T18:34:49;5.75;;;1.77;;
39068;SDS011;24822;53.574;9.612;2023-04-25T18:39:50;7.28;;;1.60;;
39068;SDS011;24822;53.574;9.612;2023-04-25T18:44:52;4.75;;;1.38;;
39068;SDS011;24822;53.574;9.612;2023-04-25T18:49:53;2.67;;;1.33;;
39068;SDS011;24822;53.574;9.612;2023-04-25T18:54:55;4.60;;;1.10;;
39068;SDS011;24822;53.574;9.612;2023-04-25T18:59:56;3.15;;;1.13;;
39068;SDS011;24822;53.574;9.612;2023-04-25T19:04:58;5.65;;;1.83;;
39068;SDS011;24822;53.574;9.612;2023-04-25T19:09:59;4.60;;;1.35;;
39068;SDS011;24822;53.574;9.612;2023-04-25T19:15:00;7.88;;;1.92;;